createdAt,value
2018-06-25T00:00:50.677Z,89.60
2018-06-25T00:03:20.336Z,90.33
2018-06-25T00:05:49.677Z,89.86
2018-06-25T00:08:19.283Z,89.93
2018-06-25T00:10:48.906Z,90.72
2018-06-25T00:13:18.450Z,90.29
2018-06-25T00:15:48.133Z,90.53
2018-06-25T00:18:19.693Z,90.25
2018-06-25T00:20:49.016Z,90.53
2018-06-25T00:23:18.425Z,90.02
2018-06-25T00:25:47.767Z,89.93
2018-06-25T00:28:17.444Z,89.89
2018-06-25T00:30:47.011Z,89.85
2018-06-25T00:33:16.507Z,90.15
2018-06-25T00:35:45.885Z,90.05
2018-06-25T00:38:15.466Z,89.82
2018-06-25T00:40:44.864Z,90.11
2018-06-25T00:43:14.453Z,90.30
2018-06-25T00:45:43.851Z,89.84
2018-06-25T00:48:13.479Z,90.14
2018-06-25T00:50:43.043Z,90.67
2018-06-25T00:53:12.834Z,90.34
2018-06-25T00:55:42.368Z,89.66
2018-06-25T00:58:11.974Z,90.02
2018-06-25T01:00:41.454Z,89.86
2018-06-25T01:03:10.917Z,89.88
2018-06-25T01:05:40.489Z,89.95
2018-06-25T01:08:10.109Z,89.60
2018-06-25T01:10:39.956Z,89.62
2018-06-25T01:13:09.407Z,89.68
2018-06-25T01:15:38.783Z,89.41
2018-06-25T01:18:08.878Z,89.78
2018-06-25T01:20:38.436Z,90.42
2018-06-25T01:23:08.264Z,90.02
2018-06-25T01:25:37.959Z,90.39
2018-06-25T01:28:07.584Z,90.11
2018-06-25T01:30:37.501Z,90.33
2018-06-25T01:33:06.992Z,90.18
2018-06-25T01:35:36.540Z,90.74
2018-06-25T01:38:07.389Z,90.16
2018-06-25T01:40:37.042Z,90.78
2018-06-25T01:43:06.527Z,90.55
2018-06-25T01:45:35.971Z,90.45
2018-06-25T01:48:05.889Z,90.42
2018-06-25T01:50:35.217Z,90.17
2018-06-25T01:53:04.581Z,89.92
2018-06-25T01:55:33.986Z,90.26
2018-06-25T01:58:03.267Z,90.37
2018-06-25T02:00:32.564Z,90.93
2018-06-25T02:03:01.978Z,90.70
2018-06-25T02:05:31.258Z,91.01
2018-06-25T02:08:00.515Z,90.55
2018-06-25T02:10:29.775Z,91.20
2018-06-25T02:12:59.046Z,91.53
2018-06-25T02:15:28.341Z,91.31
2018-06-25T02:17:57.873Z,91.14
2018-06-25T02:20:27.227Z,91.50
2018-06-25T02:22:56.678Z,91.89
2018-06-25T02:25:25.920Z,91.88
2018-06-25T02:27:55.277Z,91.64
2018-06-25T02:30:24.680Z,91.89
2018-06-25T02:32:53.998Z,91.58
2018-06-25T02:35:23.281Z,91.58
2018-06-25T02:37:52.518Z,91.89
2018-06-25T02:40:21.921Z,91.18
2018-06-25T02:42:51.176Z,91.54
2018-06-25T02:45:20.478Z,91.35
2018-06-25T02:47:50.097Z,91.00
2018-06-25T02:50:19.397Z,90.78
2018-06-25T02:52:48.747Z,90.23
2018-06-25T02:55:18.041Z,90.81
2018-06-25T02:57:47.305Z,90.42
2018-06-25T03:00:16.581Z,90.69
2018-06-25T03:02:46.331Z,90.74
2018-06-25T03:05:15.708Z,91.30
2018-06-25T03:07:45.123Z,90.78
2018-06-25T03:10:14.495Z,90.81
2018-06-25T03:12:43.956Z,90.76
2018-06-25T03:15:13.544Z,91.11
2018-06-25T03:17:43.109Z,90.65
2018-06-25T03:20:13.500Z,91.01
2018-06-25T03:22:42.945Z,91.02
2018-06-25T03:25:12.794Z,90.63
2018-06-25T03:27:42.191Z,90.82
2018-06-25T03:30:11.515Z,90.66
2018-06-25T03:32:41.004Z,90.91
2018-06-25T03:35:10.375Z,90.78
2018-06-25T03:37:40.726Z,90.94
2018-06-25T03:40:11.373Z,90.69
2018-06-25T03:42:40.864Z,90.81
2018-06-25T03:45:10.290Z,90.94
2018-06-25T03:47:39.654Z,90.82
2018-06-25T03:50:09.313Z,90.85
2018-06-25T03:52:38.717Z,90.00
2018-06-25T03:55:08.275Z,90.46
2018-06-25T03:57:37.725Z,90.59
2018-06-25T04:00:07.563Z,90.27
2018-06-25T04:02:37.184Z,90.22
2018-06-25T04:05:06.706Z,90.23
2018-06-25T04:07:36.159Z,90.46
2018-06-25T04:10:06.158Z,89.78
2018-06-25T04:12:35.784Z,89.80
2018-06-25T04:15:05.661Z,89.63
2018-06-25T04:17:35.336Z,90.04
2018-06-25T04:20:04.906Z,89.13
2018-06-25T04:22:34.175Z,89.03
2018-06-25T04:25:03.887Z,89.23
2018-06-25T04:27:33.185Z,89.18
2018-06-25T04:30:02.556Z,89.82
2018-06-25T04:32:31.854Z,89.31
2018-06-25T04:35:01.100Z,88.86
2018-06-25T04:37:30.373Z,88.64
2018-06-25T04:40:00.042Z,88.67
2018-06-25T04:42:29.257Z,88.32
2018-06-25T04:44:58.595Z,88.52
2018-06-25T04:47:27.889Z,88.52
2018-06-25T04:49:57.123Z,89.00
2018-06-25T04:52:26.417Z,88.47
2018-06-25T04:54:55.734Z,88.24
2018-06-25T04:57:25.140Z,88.43
2018-06-25T04:59:54.470Z,88.05
2018-06-25T05:02:23.993Z,88.66
2018-06-25T05:04:53.327Z,87.88
2018-06-25T05:07:23.393Z,88.33
2018-06-25T05:09:52.832Z,87.83
2018-06-25T05:12:22.115Z,88.01
2018-06-25T05:14:52.598Z,87.68
2018-06-25T05:17:22.130Z,87.05
2018-06-25T05:19:51.537Z,86.65
2018-06-25T05:22:20.828Z,85.92
2018-06-25T05:24:50.276Z,86.70
2018-06-25T05:27:19.681Z,86.12
2018-06-25T05:29:49.094Z,85.88
2018-06-25T05:32:18.493Z,85.46
2018-06-25T05:34:47.864Z,85.34
2018-06-25T05:37:17.587Z,85.72
2018-06-25T05:39:47.152Z,85.24
2018-06-25T05:42:21.425Z,84.98
2018-06-25T05:44:52.165Z,84.73
2018-06-25T05:47:22.051Z,84.62
2018-06-25T05:49:51.556Z,84.42
2018-06-25T05:52:21.168Z,84.02
2018-06-25T05:54:50.645Z,83.88
2018-06-25T05:57:20.147Z,83.50
2018-06-25T05:59:50.017Z,83.28
2018-06-25T06:02:19.690Z,83.15
2018-06-25T06:04:49.078Z,82.56
2018-06-25T06:07:18.847Z,82.61
2018-06-25T06:09:48.240Z,82.77
2018-06-25T06:12:17.650Z,82.80
2018-06-25T06:14:47.053Z,82.86
2018-06-25T06:17:16.412Z,82.66
2018-06-25T06:19:45.742Z,82.84
2018-06-25T06:22:15.372Z,82.95
2018-06-25T06:24:44.705Z,82.36
2018-06-25T06:27:15.260Z,81.78
2018-06-25T06:29:44.697Z,81.70
2018-06-25T06:32:14.277Z,81.04
2018-06-25T06:34:43.747Z,81.61
2018-06-25T06:37:13.237Z,81.25
2018-06-25T06:39:43.011Z,81.34
2018-06-25T06:42:12.448Z,81.46
2018-06-25T06:44:41.885Z,81.70
2018-06-25T06:47:11.331Z,81.17
2018-06-25T06:49:40.939Z,81.60
2018-06-25T06:52:10.708Z,81.76
2018-06-25T06:54:40.303Z,82.21
2018-06-25T06:57:09.753Z,82.04
2018-06-25T06:59:39.305Z,81.55
2018-06-25T07:02:08.867Z,81.23
2018-06-25T07:04:38.278Z,81.24
2018-06-25T07:07:07.693Z,81.21
2018-06-25T07:09:37.164Z,80.96
2018-06-25T07:12:06.626Z,80.97
2018-06-25T07:14:36.723Z,80.60
2018-06-25T07:17:06.297Z,80.80
2018-06-25T07:19:35.800Z,80.32
2018-06-25T07:22:05.559Z,78.88
2018-06-25T07:24:34.896Z,78.72
2018-06-25T07:27:04.199Z,78.34
2018-06-25T07:29:33.685Z,78.19
2018-06-25T07:32:02.963Z,77.79
2018-06-25T07:34:33.096Z,77.94
2018-06-25T07:37:02.403Z,78.07
2018-06-25T07:39:31.670Z,77.91
2018-06-25T07:42:01.059Z,77.77
2018-06-25T07:44:30.670Z,77.28
2018-06-25T07:46:59.989Z,76.90
2018-06-25T07:49:29.347Z,76.87
2018-06-25T07:51:59.121Z,75.45
2018-06-25T07:54:28.484Z,75.27
2018-06-25T07:56:57.784Z,75.65
2018-06-25T07:59:27.481Z,74.97
2018-06-25T08:01:56.773Z,74.84
2018-06-25T08:04:26.078Z,75.02
2018-06-25T08:06:55.398Z,75.21
2018-06-25T08:09:24.698Z,74.46
2018-06-25T08:11:53.958Z,74.87
2018-06-25T08:14:23.284Z,73.64
2018-06-25T08:16:52.766Z,73.07
2018-06-25T08:19:22.082Z,72.36
2018-06-25T08:21:51.592Z,72.39
2018-06-25T08:24:20.862Z,72.88
2018-06-25T08:26:50.222Z,72.19
2018-06-25T08:29:20.073Z,72.03
2018-06-25T08:31:49.488Z,72.30
2018-06-25T08:34:19.021Z,71.25
2018-06-25T08:36:48.817Z,71.40
2018-06-25T08:39:18.445Z,71.54
2018-06-25T08:41:47.927Z,71.88
2018-06-25T08:44:17.512Z,71.62
2018-06-25T08:46:46.949Z,71.78
2018-06-25T08:49:16.702Z,71.10
2018-06-25T08:51:46.250Z,71.59
2018-06-25T08:54:15.724Z,72.25
2018-06-25T08:56:45.126Z,71.75
2018-06-25T08:59:14.548Z,71.55
2018-06-25T09:01:43.943Z,71.23
2018-06-25T09:04:13.414Z,71.12
2018-06-25T09:06:42.916Z,71.67
2018-06-25T09:09:13.580Z,72.02
2018-06-25T09:11:43.055Z,71.34
2018-06-25T09:14:12.507Z,71.44
2018-06-25T09:16:42.013Z,71.41
2018-06-25T09:19:11.543Z,70.82
2018-06-25T09:21:41.560Z,69.49
2018-06-25T09:24:11.018Z,70.11
2018-06-25T09:26:41.553Z,70.08
2018-06-25T09:29:12.033Z,69.43
2018-06-25T09:31:41.432Z,67.88
2018-06-25T09:34:16.572Z,68.07
2018-06-25T09:36:46.063Z,67.80
2018-06-25T09:39:15.806Z,66.66
2018-06-25T09:41:45.892Z,65.64
2018-06-25T09:44:15.108Z,64.37
2018-06-25T09:46:44.594Z,64.61
2018-06-25T09:49:14.143Z,63.64
2018-06-25T09:51:43.552Z,62.63
2018-06-25T09:54:13.103Z,62.10
2018-06-25T09:56:43.075Z,61.23
2018-06-25T09:59:12.834Z,61.92
2018-06-25T10:01:42.492Z,61.13
2018-06-25T10:04:12.235Z,59.43
2018-06-25T10:06:41.872Z,59.28
2018-06-25T10:09:12.668Z,56.17
2018-06-25T10:11:42.226Z,54.53
2018-06-25T10:14:11.704Z,52.78
2018-06-25T10:16:41.286Z,52.75
2018-06-25T10:19:11.025Z,52.58
2018-06-25T10:21:40.705Z,53.96
2018-06-25T10:24:10.465Z,53.39
2018-06-25T10:26:40.481Z,52.88
2018-06-25T10:29:09.948Z,53.37
2018-06-25T10:31:39.432Z,53.43
2018-06-25T10:34:09.157Z,54.11
2018-06-25T10:36:38.762Z,54.66
2018-06-25T10:39:10.118Z,55.33
2018-06-25T10:41:40.020Z,54.92
2018-06-25T10:44:10.241Z,54.93
2018-06-25T10:46:40.039Z,51.87
2018-06-25T10:49:09.676Z,49.85
2018-06-25T10:51:39.269Z,50.77
2018-06-25T10:54:09.328Z,48.82
2018-06-25T10:56:39.164Z,49.97
2018-06-25T10:59:08.640Z,49.19
2018-06-25T11:01:38.442Z,48.14
2018-06-25T11:04:08.208Z,48.07
2018-06-25T11:06:37.864Z,48.69
2018-06-25T11:09:10.840Z,48.36
2018-06-25T11:11:40.332Z,47.55
2018-06-25T11:14:10.038Z,48.83
2018-06-25T11:16:39.600Z,49.89
2018-06-25T11:19:09.288Z,49.15
2018-06-25T11:21:38.999Z,48.19
2018-06-25T11:24:08.795Z,48.78
2018-06-25T11:26:38.681Z,48.64
2018-06-25T11:29:08.716Z,47.39
2018-06-25T11:31:38.336Z,48.64
2018-06-25T11:34:07.857Z,47.78
2018-06-25T11:36:37.845Z,48.06
2018-06-25T11:39:09.528Z,46.98
2018-06-25T11:41:39.137Z,46.49
2018-06-25T11:44:08.930Z,46.39
2018-06-25T11:46:38.912Z,47.74
2018-06-25T11:49:08.681Z,46.96
2018-06-25T11:51:39.695Z,46.79
2018-06-25T11:54:09.541Z,46.83
2018-06-25T11:56:39.203Z,46.89
2018-06-25T11:59:08.820Z,45.93
2018-06-25T12:01:38.444Z,45.73
2018-06-25T12:04:08.272Z,45.15
2018-06-25T12:06:38.942Z,45.50
2018-06-25T12:09:09.970Z,45.17
2018-06-25T12:11:39.610Z,44.58
2018-06-25T12:14:09.617Z,44.29
2018-06-25T12:16:39.744Z,43.46
2018-06-25T12:19:09.494Z,43.56
2018-06-25T12:21:39.441Z,42.90
2018-06-25T12:24:09.139Z,41.78
2018-06-25T12:26:38.532Z,39.18
2018-06-25T12:29:08.827Z,40.73
2018-06-25T12:31:38.289Z,42.61
2018-06-25T12:34:07.743Z,41.81
2018-06-25T12:36:38.174Z,44.30
2018-06-25T12:39:09.394Z,45.57
2018-06-25T12:41:39.257Z,46.79
2018-06-25T12:44:09.248Z,47.07
2018-06-25T12:46:39.703Z,45.75
2018-06-25T12:49:09.463Z,44.72
2018-06-25T12:51:39.089Z,46.30
2018-06-25T12:54:08.722Z,43.68
2018-06-25T12:56:39.305Z,44.34
2018-06-25T12:59:09.125Z,43.88
2018-06-25T13:01:38.749Z,45.79
2018-06-25T13:04:08.848Z,45.76
2018-06-25T13:06:38.561Z,46.12
2018-06-25T13:09:12.261Z,48.14
2018-06-25T13:11:42.102Z,49.17
2018-06-25T13:14:11.828Z,50.32
2018-06-25T13:16:42.188Z,51.40
2018-06-25T13:19:11.787Z,53.66
2018-06-25T13:21:41.370Z,55.33
2018-06-25T13:24:11.306Z,57.09
2018-06-25T13:26:41.149Z,58.52
2018-06-25T13:29:12.190Z,59.54
2018-06-25T13:31:41.753Z,59.76
2018-06-25T13:34:11.463Z,60.72
2018-06-25T13:36:41.837Z,61.71
2018-06-25T13:39:11.396Z,62.41
2018-06-25T13:41:41.013Z,61.68
2018-06-25T13:44:11.171Z,63.04
2018-06-25T13:46:41.295Z,63.81
2018-06-25T13:49:10.943Z,65.15
2018-06-25T13:51:40.464Z,64.78
2018-06-25T13:54:10.071Z,64.58
2018-06-25T13:56:39.778Z,64.47
2018-06-25T13:59:09.682Z,64.99
2018-06-25T14:01:39.305Z,63.96
2018-06-25T14:04:09.179Z,64.12
2018-06-25T14:06:39.340Z,64.06
2018-06-25T14:09:11.009Z,65.55
2018-06-25T14:11:41.665Z,65.80
2018-06-25T14:14:11.302Z,66.01
2018-06-25T14:16:41.263Z,66.54
2018-06-25T14:19:11.583Z,67.61
2018-06-25T14:21:41.247Z,67.75
2018-06-25T14:24:16.876Z,68.49
2018-06-25T14:26:46.504Z,68.21
2018-06-25T14:29:21.391Z,68.62
2018-06-25T14:31:53.499Z,68.10
2018-06-25T14:34:23.230Z,67.59
2018-06-25T14:36:52.844Z,68.65
2018-06-25T14:39:22.198Z,68.08
2018-06-25T14:41:52.491Z,68.97
2018-06-25T14:44:21.953Z,68.92
2018-06-25T14:46:51.276Z,69.20
2018-06-25T14:49:20.616Z,69.78
2018-06-25T14:51:50.256Z,69.50
2018-06-25T14:54:19.689Z,69.98
2018-06-25T14:56:49.173Z,70.41
2018-06-25T14:59:18.706Z,70.00
2018-06-25T15:01:48.178Z,70.33
2018-06-25T15:04:17.703Z,69.91
2018-06-25T15:06:47.720Z,70.42
2018-06-25T15:09:17.408Z,70.28
2018-06-25T15:11:47.098Z,70.24
2018-06-25T15:14:16.819Z,70.70
2018-06-25T15:16:46.361Z,70.53
2018-06-25T15:19:16.296Z,70.50
2018-06-25T15:21:46.534Z,71.16
2018-06-25T15:24:18.282Z,71.10
2018-06-25T15:26:48.209Z,72.15
2018-06-25T15:29:17.845Z,71.51
2018-06-25T15:31:47.405Z,71.33
2018-06-25T15:34:16.876Z,71.10
2018-06-25T15:36:46.568Z,71.46
2018-06-25T15:39:16.481Z,71.00
2018-06-25T15:41:46.008Z,70.78
2018-06-25T15:44:15.838Z,71.12
2018-06-25T15:46:45.571Z,71.27
2018-06-25T15:49:15.459Z,71.32
2018-06-25T15:51:45.379Z,71.41
2018-06-25T15:54:14.932Z,72.07
2018-06-25T15:56:44.568Z,73.29
2018-06-25T15:59:14.213Z,73.66
2018-06-25T16:01:44.332Z,73.94
2018-06-25T16:04:13.994Z,74.26
2018-06-25T16:06:43.838Z,74.03
2018-06-25T16:09:13.623Z,73.26
2018-06-25T16:11:43.274Z,73.70
2018-06-25T16:14:12.905Z,73.78
2018-06-25T16:16:43.081Z,74.15
2018-06-25T16:19:12.674Z,73.01
2018-06-25T16:21:42.453Z,73.48
2018-06-25T16:24:12.242Z,73.14
2018-06-25T16:26:42.068Z,72.73
2018-06-25T16:29:11.848Z,73.12
2018-06-25T16:31:41.981Z,73.79
2018-06-25T16:34:11.681Z,73.53
2018-06-25T16:36:41.505Z,74.03
2018-06-25T16:39:13.000Z,74.05
2018-06-25T16:41:42.755Z,73.72
2018-06-25T16:44:14.099Z,74.19
2018-06-25T16:46:43.746Z,74.28
2018-06-25T16:49:13.839Z,74.89
2018-06-25T16:51:44.605Z,74.42
2018-06-25T16:54:14.646Z,74.53
2018-06-25T16:56:44.289Z,74.65
2018-06-25T16:59:14.139Z,74.14
2018-06-25T17:01:43.994Z,75.01
2018-06-25T17:04:13.772Z,74.62
2018-06-25T17:06:43.471Z,74.97
2018-06-25T17:09:13.744Z,75.07
2018-06-25T17:11:43.833Z,74.32
2018-06-25T17:14:16.457Z,74.23
2018-06-25T17:16:46.050Z,75.01
2018-06-25T17:19:17.167Z,74.41
2018-06-25T17:21:48.396Z,73.95
2018-06-25T17:24:18.169Z,73.43
2018-06-25T17:26:49.212Z,73.50
2018-06-25T17:29:18.732Z,73.89
2018-06-25T17:31:48.275Z,74.05
2018-06-25T17:34:17.947Z,74.15
2018-06-25T17:36:47.765Z,73.93
2018-06-25T17:39:19.845Z,73.90
2018-06-25T17:41:49.347Z,74.47
2018-06-25T17:44:19.284Z,75.11
2018-06-25T17:46:49.649Z,74.87
2018-06-25T17:49:19.657Z,74.36
2018-06-25T17:51:49.531Z,75.11
2018-06-25T17:54:19.927Z,73.75
2018-06-25T17:56:49.613Z,74.29
2018-06-25T17:59:19.541Z,73.74
2018-06-25T18:01:49.268Z,73.69
2018-06-25T18:04:18.950Z,74.14
2018-06-25T18:06:49.021Z,74.82
2018-06-25T18:09:20.249Z,73.77
2018-06-25T18:11:50.017Z,73.70
2018-06-25T18:14:19.531Z,73.52
2018-06-25T18:16:49.381Z,75.27
2018-06-25T18:19:21.821Z,75.36
2018-06-25T18:21:51.517Z,75.66
2018-06-25T18:24:21.129Z,76.21
2018-06-25T18:26:50.400Z,76.48
2018-06-25T18:29:20.115Z,76.30
2018-06-25T18:31:49.605Z,76.79
2018-06-25T18:34:19.633Z,76.52
2018-06-25T18:36:50.038Z,76.58
2018-06-25T18:39:19.569Z,77.12
2018-06-25T18:41:49.169Z,77.19
2018-06-25T18:44:18.697Z,77.26
2018-06-25T18:46:48.327Z,77.16
2018-06-25T18:49:18.898Z,77.03
2018-06-25T18:51:48.580Z,77.31
2018-06-25T18:54:19.585Z,77.27
2018-06-25T18:56:50.425Z,77.82
2018-06-25T18:59:20.523Z,77.97
2018-06-25T19:01:50.324Z,78.07
2018-06-25T19:04:20.269Z,78.35
2018-06-25T19:06:50.211Z,78.43
2018-06-25T19:09:19.947Z,78.50
2018-06-25T19:16:39.241Z,78.58
2018-06-25T19:19:09.508Z,78.67
2018-06-25T19:21:39.141Z,78.86
2018-06-25T19:24:09.050Z,79.16
2018-06-25T19:26:38.693Z,79.41
2018-06-25T19:29:08.894Z,79.14
2018-06-25T19:31:38.953Z,79.01
2018-06-25T19:34:11.381Z,78.89
2018-06-25T19:36:41.675Z,78.89
2018-06-25T19:39:13.589Z,78.88
2018-06-25T19:41:43.498Z,78.72
2018-06-25T19:44:13.336Z,79.05
2018-06-25T19:46:42.809Z,79.24
2018-06-25T19:49:12.200Z,79.26
2018-06-25T19:51:41.771Z,79.29
2018-06-25T19:54:11.665Z,79.29
2018-06-25T19:56:41.245Z,79.87
2018-06-25T19:59:11.129Z,79.75
2018-06-25T20:01:40.716Z,79.82
2018-06-25T20:04:10.394Z,80.04
2018-06-25T20:06:40.277Z,80.04
2018-06-25T20:09:11.939Z,80.01
2018-06-25T20:11:42.573Z,79.69
2018-06-25T20:14:12.251Z,79.69
2018-06-25T20:16:42.213Z,79.67
2018-06-25T20:19:11.557Z,79.98
2018-06-25T20:21:41.057Z,80.19
2018-06-25T20:24:11.156Z,80.41
2018-06-25T20:26:40.354Z,80.53
2018-06-25T20:29:09.760Z,80.93
2018-06-25T20:31:39.525Z,80.99
2018-06-25T20:34:08.901Z,80.71
2018-06-25T20:36:38.643Z,80.76
2018-06-25T20:39:10.223Z,80.41
2018-06-25T20:41:39.496Z,80.76
2018-06-25T20:44:09.566Z,80.83
2018-06-25T20:46:39.071Z,80.99
2018-06-25T20:49:08.723Z,80.83
2018-06-25T20:51:38.756Z,80.71
2018-06-25T20:54:09.435Z,80.61
2018-06-25T20:56:38.973Z,81.02
2018-06-25T20:59:08.855Z,81.11
2018-06-25T21:01:38.422Z,81.40
2018-06-25T21:04:08.499Z,81.46
2018-06-25T21:06:38.038Z,81.59
2018-06-25T21:09:10.562Z,81.86
2018-06-25T21:11:40.328Z,82.39
2018-06-25T21:14:09.648Z,82.64
2018-06-25T21:16:39.505Z,82.70
2018-06-25T21:19:09.011Z,82.82
2018-06-25T21:21:38.539Z,82.41
2018-06-25T21:24:07.862Z,82.47
2018-06-25T21:26:37.377Z,82.24
2018-06-25T21:29:06.834Z,82.25
2018-06-25T21:31:36.589Z,82.55
2018-06-25T21:34:06.191Z,82.49
2018-06-25T21:36:35.933Z,82.58
2018-06-25T21:39:08.173Z,82.65
2018-06-25T21:41:37.653Z,82.74
2018-06-25T21:44:07.212Z,82.95
2018-06-25T21:46:36.825Z,83.33
2018-06-25T21:49:06.945Z,83.43
2018-06-25T21:51:36.518Z,83.51
2018-06-25T21:54:06.440Z,83.63
2018-06-25T21:56:36.063Z,83.77
2018-06-25T21:59:05.837Z,83.66
2018-06-25T22:01:35.899Z,83.67
2018-06-25T22:04:05.718Z,83.49
2018-06-25T22:06:35.320Z,83.51
2018-06-25T22:09:07.858Z,83.81
2018-06-25T22:11:37.396Z,84.05
2018-06-25T22:14:07.381Z,83.65
2018-06-25T22:16:36.896Z,84.00
2018-06-25T22:19:06.846Z,84.15
2018-06-25T22:21:36.600Z,84.42
2018-06-25T22:24:07.012Z,84.64
2018-06-25T22:26:36.493Z,84.38
2018-06-25T22:29:06.155Z,84.26
2018-06-25T22:31:35.922Z,84.22
2018-06-25T22:34:05.910Z,84.35
2018-06-25T22:36:35.214Z,84.27
2018-06-25T22:39:07.925Z,84.16
2018-06-25T22:41:37.701Z,84.90
2018-06-25T22:44:11.645Z,84.63
2018-06-25T22:46:41.867Z,84.35
2018-06-25T22:49:11.495Z,84.36
2018-06-25T22:51:40.922Z,84.46
2018-06-25T22:54:10.590Z,84.90
2018-06-25T22:56:40.637Z,84.68
2018-06-25T22:59:10.460Z,83.63
2018-06-25T23:01:40.092Z,84.35
2018-06-25T23:04:09.483Z,84.45
2018-06-25T23:06:38.969Z,84.47
2018-06-25T23:09:10.439Z,84.67
2018-06-25T23:11:39.873Z,84.85
2018-06-25T23:14:09.233Z,84.85
2018-06-25T23:16:38.937Z,84.85
2018-06-25T23:19:08.363Z,84.69
2018-06-25T23:21:37.761Z,85.83
2018-06-25T23:24:07.303Z,85.50
2018-06-25T23:26:36.767Z,85.40
2018-06-25T23:29:06.174Z,85.38
2018-06-25T23:31:35.688Z,85.58
2018-06-25T23:34:06.016Z,85.60
2018-06-25T23:36:35.359Z,85.38
2018-06-25T23:39:06.692Z,85.77
2018-06-25T23:41:36.110Z,85.51
2018-06-25T23:44:05.688Z,85.83
2018-06-25T23:46:35.133Z,86.28
2018-06-25T23:49:05.098Z,86.32
2018-06-25T23:51:34.471Z,86.02
2018-06-25T23:54:03.912Z,86.70
2018-06-25T23:56:33.389Z,86.34
2018-06-25T23:59:02.754Z,86.28
